Koun Maru — JK5556 — position and weather

sailwx.info

Track history (hours):
 
Tides and Currents Weather Stations Pressure Air Temp Water Temp Dewpoint Dewpoint Depression Visibility Wind Speed Wind Dir Waves Ship Positions

Koun Maru

Last reported at 2015-Apr-01 11:09 UTC. Time now 2015-Apr-01 14:30 UTC.
Position N 34°10' E 135°06'.

Length 40 m.

Type: Tanker. MMSI: 431401871.

Date/timePositionNaut miles runAvg speedWind from/ knotsBaromVisibWave heightAir tempDewpointWater temp
2015-Apr-01 11:09N 34°10' E 135°06'6 9.7
2015-Apr-01 10:33N 34°15' E 135°04'30 1.1
2015-Mar-31 06:30N 34°39' E 135°26'3 1.7
2015-Mar-31 04:33N 34°37' E 135°23'2 0.9
2015-Mar-31 02:11N 34°36' E 135°21'710.7
2015-Mar-31 01:33N 34°40' E 135°15'1 1.0
2015-Mar-31 00:29N 34°40' E 135°13'0 0.0
2015-Mar-30 23:29N 34°40' E 135°13'3 3.7
2015-Mar-30 22:33N 34°41' E 135°17'8 0.6
2015-Mar-30 08:27N 34°35' E 135°24'6 2.1
2015-Mar-30 05:32N 34°34' E 135°17'1110.9
2015-Mar-30 04:32N 34°36' E 135°03'  
2015-Mar-25 09:25N 34°37' E 135°06'1010.4
2015-Mar-25 08:26N 34°38' E 135°19'3 0.4
2015-Mar-25 02:08N 34°36' E 135°21'611.0
2015-Mar-25 01:33N 34°42' E 135°17'1 0.9
2015-Mar-25 00:28N 34°42' E 135°16'0 0.0
2015-Mar-24 23:30N 34°42' E 135°16'4 3.9
2015-Mar-24 22:33N 34°41' E 135°20'6 0.5
2015-Mar-24 10:21N 34°38' E 135°27'5 1.8
2015-Mar-24 07:21N 34°37' E 135°20'6 6.5
2015-Mar-24 06:28N 34°42' E 135°17'0 0.0
2015-Mar-24 05:29N 34°42' E 135°17'0 0.0
2015-Mar-24 04:29N 34°42' E 135°17'0 0.0
2015-Mar-24 03:30N 34°42' E 135°17'0 0.1
2015-Mar-24 02:28N 34°42' E 135°17'6 6.4
2015-Mar-24 01:33N 34°40' E 135°24'3 0.2
2015-Mar-23 08:14N 34°39' E 135°27'4 3.7
2015-Mar-23 07:05N 34°34' E 135°26'6 4.0
2015-Mar-23 05:30N 34°38' E 135°19'5 5.7
2015-Mar-23 04:33N 34°40' E 135°13'0 0.0
2015-Mar-23 03:31N 34°40' E 135°13'1 1.2
2015-Mar-23 02:33N 34°40' E 135°15'  
Track history (hours):
 
Tides and Currents Weather Stations Pressure Air Temp Water Temp Dewpoint Dewpoint Depression Visibility Wind Speed Wind Dir Waves Ship Positions

Koun Maru

Last reported at 2015-Apr-01 11:09 UTC. Time now 2015-Apr-01 14:30 UTC.
Position N 34°10' E 135°06'.

Length 40 m.

Type: Tanker. MMSI: 431401871.

Date/timePositionNaut miles runAvg speedWind from/ knotsBaromVisibWave heightAir tempDewpointWater temp
2015-Apr-01 11:09N 34°10' E 135°06'6 9.7
2015-Apr-01 10:33N 34°15' E 135°04'30 1.1
2015-Mar-31 06:30N 34°39' E 135°26'3 1.7
2015-Mar-31 04:33N 34°37' E 135°23'2 0.9
2015-Mar-31 02:11N 34°36' E 135°21'710.7
2015-Mar-31 01:33N 34°40' E 135°15'1 1.0
2015-Mar-31 00:29N 34°40' E 135°13'0 0.0
2015-Mar-30 23:29N 34°40' E 135°13'3 3.7
2015-Mar-30 22:33N 34°41' E 135°17'8 0.6
2015-Mar-30 08:27N 34°35' E 135°24'6 2.1
2015-Mar-30 05:32N 34°34' E 135°17'1110.9
2015-Mar-30 04:32N 34°36' E 135°03'  
2015-Mar-25 09:25N 34°37' E 135°06'1010.4
2015-Mar-25 08:26N 34°38' E 135°19'3 0.4
2015-Mar-25 02:08N 34°36' E 135°21'611.0
2015-Mar-25 01:33N 34°42' E 135°17'1 0.9
2015-Mar-25 00:28N 34°42' E 135°16'0 0.0
2015-Mar-24 23:30N 34°42' E 135°16'4 3.9
2015-Mar-24 22:33N 34°41' E 135°20'6 0.5
2015-Mar-24 10:21N 34°38' E 135°27'5 1.8
2015-Mar-24 07:21N 34°37' E 135°20'6 6.5
2015-Mar-24 06:28N 34°42' E 135°17'0 0.0
2015-Mar-24 05:29N 34°42' E 135°17'0 0.0
2015-Mar-24 04:29N 34°42' E 135°17'0 0.0
2015-Mar-24 03:30N 34°42' E 135°17'0 0.1
2015-Mar-24 02:28N 34°42' E 135°17'6 6.4
2015-Mar-24 01:33N 34°40' E 135°24'3 0.2
2015-Mar-23 08:14N 34°39' E 135°27'4 3.7
2015-Mar-23 07:05N 34°34' E 135°26'6 4.0
2015-Mar-23 05:30N 34°38' E 135°19'5 5.7
2015-Mar-23 04:33N 34°40' E 135°13'0 0.0
2015-Mar-23 03:31N 34°40' E 135°13'1 1.2
2015-Mar-23 02:33N 34°40' E 135°15'  

Dump ship's entire track history